createdAt,value
2023-01-13T00:03:37.889Z,74.08
2023-01-13T00:08:39.767Z,74.15
2023-01-13T00:13:41.913Z,74.25
2023-01-13T00:18:44.764Z,74.51
2023-01-13T00:23:47.419Z,74.65
2023-01-13T00:28:49.762Z,74.81
2023-01-13T00:33:51.724Z,75.14
2023-01-13T00:38:53.586Z,75.28
2023-01-13T00:43:55.486Z,75.72
2023-01-13T00:48:57.239Z,75.99
2023-01-13T00:53:58.974Z,76.38
2023-01-13T00:59:02.210Z,76.28
2023-01-13T01:04:04.164Z,76.58
2023-01-13T01:09:06.974Z,76.67
2023-01-13T01:14:12.770Z,76.81
2023-01-13T01:19:14.666Z,76.72
2023-01-13T01:24:16.793Z,76.77
2023-01-13T01:29:18.873Z,76.73
2023-01-13T01:34:20.746Z,76.89
2023-01-13T01:39:22.755Z,76.77
2023-01-13T01:44:42.954Z,76.84
2023-01-13T01:49:46.212Z,76.59
2023-01-13T01:55:08.461Z,76.48
2023-01-13T02:00:10.979Z,76.32
2023-01-13T02:05:16.482Z,76.25
2023-01-13T02:10:21.751Z,76.16
2023-01-13T02:15:27.459Z,76.01
2023-01-13T02:20:50.337Z,75.95
2023-01-13T02:26:20.976Z,75.84
2023-01-13T02:31:42.114Z,75.72
2023-01-13T02:37:19.444Z,75.55
2023-01-13T02:42:49.347Z,75.42
2023-01-13T02:47:56.070Z,75.36
2023-01-13T02:53:13.231Z,75.44
2023-01-13T02:58:18.806Z,75.14
2023-01-13T03:03:24.206Z,75.12
2023-01-13T03:08:50.632Z,75.11
2023-01-13T03:14:02.183Z,75.12
2023-01-13T03:19:34.271Z,75.09
2023-01-13T03:24:40.832Z,74.97
2023-01-13T03:29:49.447Z,74.80
2023-01-13T03:34:55.879Z,74.72
2023-01-13T03:40:02.338Z,74.63
2023-01-13T03:45:13.003Z,74.67
2023-01-13T03:50:22.776Z,74.69
2023-01-13T03:55:35.947Z,74.42
2023-01-13T04:00:44.769Z,74.51
2023-01-13T04:05:51.837Z,74.46
2023-01-13T04:11:02.260Z,74.33
2023-01-13T04:16:07.375Z,74.41
2023-01-13T04:21:09.486Z,74.46
2023-01-13T04:26:11.283Z,74.34
2023-01-13T04:31:14.164Z,74.42
2023-01-13T04:36:16.062Z,74.31
2023-01-13T04:41:20.467Z,74.33
2023-01-13T04:46:22.297Z,74.44
2023-01-13T04:51:24.244Z,74.26
2023-01-13T04:56:26.104Z,74.38
2023-01-13T05:01:28.213Z,74.39
2023-01-13T05:06:30.337Z,74.54
2023-01-13T05:11:50.630Z,74.40
2023-01-13T05:17:00.915Z,74.34
2023-01-13T05:22:25.671Z,74.29
2023-01-13T05:27:28.270Z,74.17
2023-01-13T05:32:30.071Z,74.24
2023-01-13T05:37:31.866Z,74.20
2023-01-13T05:42:52.341Z,74.23
2023-01-13T05:47:54.308Z,74.15
2023-01-13T05:52:57.930Z,74.28
2023-01-13T05:58:02.204Z,74.02
2023-01-13T06:03:04.903Z,73.99
2023-01-13T06:08:08.600Z,73.90
2023-01-13T06:13:10.401Z,73.95
2023-01-13T06:18:12.253Z,73.85
2023-01-13T06:23:16.513Z,73.85
2023-01-13T06:28:19.613Z,73.91
2023-01-13T06:33:32.134Z,73.99
2023-01-13T06:38:37.778Z,73.56
2023-01-13T06:43:40.295Z,73.86
2023-01-13T06:48:42.303Z,73.72
2023-01-13T06:53:44.119Z,73.78
2023-01-13T06:58:46.122Z,73.75
2023-01-13T07:03:48.073Z,73.71
2023-01-13T07:08:50.210Z,73.56
2023-01-13T07:14:10.714Z,73.60
2023-01-13T07:19:12.636Z,73.50
2023-01-13T07:24:14.793Z,73.49
2023-01-13T07:29:16.870Z,73.53
2023-01-13T07:34:18.731Z,73.40
2023-01-13T07:39:20.612Z,73.42
2023-01-13T07:44:22.533Z,73.16
2023-01-13T07:49:24.462Z,73.19
2023-01-13T07:54:39.616Z,73.06
2023-01-13T07:59:42.965Z,72.87
2023-01-13T08:04:44.802Z,72.97
2023-01-13T08:09:46.759Z,72.87
2023-01-13T08:14:50.407Z,72.62
2023-01-13T08:19:52.237Z,72.58
2023-01-13T08:24:54.050Z,72.57
2023-01-13T08:29:55.918Z,72.65
2023-01-13T08:34:57.809Z,72.52
2023-01-13T08:39:59.607Z,72.46
2023-01-13T08:45:01.515Z,72.54
2023-01-13T08:50:04.527Z,72.35
2023-01-13T08:55:07.075Z,72.29
2023-01-13T09:00:09.791Z,72.10
2023-01-13T09:05:11.948Z,72.21
2023-01-13T09:10:13.994Z,72.15
2023-01-13T09:15:18.577Z,71.91
2023-01-13T09:20:20.563Z,71.80
2023-01-13T09:25:22.308Z,71.64
2023-01-13T09:30:25.121Z,71.52
2023-01-13T09:35:26.976Z,71.76
2023-01-13T09:40:28.794Z,71.61
2023-01-13T09:45:51.109Z,71.57
2023-01-13T09:51:24.777Z,72.32
2023-01-13T09:56:26.867Z,73.11
2023-01-13T10:01:52.761Z,73.51
2023-01-13T10:07:03.775Z,73.81
2023-01-13T10:12:33.041Z,73.72
2023-01-13T10:17:46.113Z,73.78
2023-01-13T10:22:47.855Z,73.59
2023-01-13T10:27:52.946Z,73.61
2023-01-13T10:33:00.154Z,73.64
2023-01-13T10:38:02.145Z,73.59
2023-01-13T10:43:06.651Z,73.52
2023-01-13T10:48:15.068Z,73.63
2023-01-13T10:53:25.295Z,73.62
2023-01-13T10:58:28.256Z,73.56
2023-01-13T11:03:41.448Z,73.76
2023-01-13T11:08:53.037Z,73.62
2023-01-13T11:14:20.697Z,73.71
2023-01-13T11:19:27.762Z,73.73
2023-01-13T11:24:50.087Z,73.81
2023-01-13T11:29:55.339Z,73.63
2023-01-13T11:35:02.473Z,73.67
2023-01-13T11:40:14.851Z,73.51
2023-01-13T11:45:37.865Z,73.40
2023-01-13T11:50:52.056Z,73.42
2023-01-13T11:55:59.610Z,73.58
2023-01-13T12:01:09.962Z,73.40
2023-01-13T12:06:26.952Z,73.25
2023-01-13T12:12:03.237Z,72.57
2023-01-13T12:17:16.671Z,72.10
2023-01-13T12:22:31.070Z,71.44
2023-01-13T12:27:49.232Z,70.88
2023-01-13T12:32:57.448Z,70.48
2023-01-13T12:38:19.524Z,70.20
2023-01-13T12:43:43.103Z,70.64
2023-01-13T12:48:57.244Z,70.18
2023-01-13T12:54:01.149Z,70.17
2023-01-13T12:59:26.042Z,70.13
2023-01-13T13:04:56.199Z,70.08
2023-01-13T13:10:18.161Z,70.07
2023-01-13T13:15:25.749Z,70.21
2023-01-13T13:20:56.766Z,69.81
2023-01-13T13:26:04.783Z,69.99
2023-01-13T13:31:31.031Z,69.97
2023-01-13T13:37:24.320Z,70.13
2023-01-13T13:42:55.845Z,70.04
2023-01-13T13:47:57.868Z,70.23
2023-01-13T13:53:05.397Z,70.21
2023-01-13T13:58:17.629Z,70.17
2023-01-13T14:03:29.182Z,70.00
2023-01-13T14:08:39.504Z,69.84
2023-01-13T14:13:41.405Z,69.78
2023-01-13T14:18:47.417Z,69.99
2023-01-13T14:23:56.849Z,70.00
2023-01-13T14:29:01.659Z,70.02
2023-01-13T14:34:31.364Z,69.96
2023-01-13T14:39:38.575Z,69.92
2023-01-13T14:44:48.963Z,69.80
2023-01-13T14:50:11.966Z,69.33
2023-01-13T14:55:29.243Z,69.18
2023-01-13T15:00:33.033Z,68.64
2023-01-13T15:05:37.660Z,68.86
2023-01-13T15:10:55.459Z,68.91
2023-01-13T15:16:00.291Z,68.57
2023-01-13T15:21:02.224Z,68.44
2023-01-13T15:26:04.404Z,68.69
2023-01-13T15:31:06.314Z,68.43
2023-01-13T15:36:20.900Z,68.50
2023-01-13T15:41:41.771Z,68.49
2023-01-13T15:46:44.335Z,68.42
2023-01-13T15:51:49.838Z,68.57
2023-01-13T15:56:52.571Z,68.55
2023-01-13T16:01:54.372Z,68.68
2023-01-13T16:06:56.167Z,68.64
2023-01-13T16:11:57.954Z,68.87
2023-01-13T16:17:01.754Z,68.88
2023-01-13T16:22:03.516Z,68.96
2023-01-13T16:27:23.309Z,69.03
2023-01-13T16:32:25.246Z,69.16
2023-01-13T16:37:27.845Z,68.90
2023-01-13T16:42:29.788Z,69.05
2023-01-13T16:47:31.672Z,68.92
2023-01-13T16:52:33.478Z,68.81
2023-01-13T16:57:38.093Z,68.63
2023-01-13T17:02:40.203Z,68.66
2023-01-13T17:07:43.338Z,68.58
2023-01-13T17:12:45.446Z,68.24
2023-01-13T17:17:52.006Z,67.77
2023-01-13T17:22:58.372Z,67.37
2023-01-13T17:28:02.750Z,67.02
2023-01-13T17:33:04.597Z,66.88
2023-01-13T17:38:06.455Z,66.42
2023-01-13T17:43:08.361Z,66.49
2023-01-13T17:48:10.149Z,66.09
2023-01-13T17:53:11.930Z,65.76
2023-01-13T17:58:13.839Z,65.88
2023-01-13T18:03:17.568Z,66.00
2023-01-13T18:08:19.679Z,65.89
2023-01-13T18:13:21.508Z,65.89
2023-01-13T18:18:23.361Z,66.23
2023-01-13T18:23:43.794Z,66.06
2023-01-13T18:28:45.793Z,66.09
2023-01-13T18:33:47.615Z,66.22
2023-01-13T18:38:50.648Z,66.18
2023-01-13T18:43:52.462Z,66.18
2023-01-13T18:48:54.563Z,66.40
2023-01-13T18:53:56.433Z,66.28
2023-01-13T18:58:58.542Z,65.96
2023-01-13T19:04:03.056Z,66.08
2023-01-13T19:09:08.726Z,65.75
2023-01-13T19:14:10.602Z,65.54
2023-01-13T19:19:12.491Z,65.44
2023-01-13T19:24:14.352Z,65.57
2023-01-13T19:29:16.225Z,65.72
2023-01-13T19:34:18.552Z,65.58
2023-01-13T19:39:23.945Z,65.80
2023-01-13T19:44:44.132Z,65.88
2023-01-13T19:49:46.221Z,66.05
2023-01-13T19:54:48.447Z,66.15
2023-01-13T19:59:50.262Z,66.25
2023-01-13T20:04:55.868Z,66.35
2023-01-13T20:09:58.288Z,66.51
2023-01-13T20:15:00.107Z,66.55
2023-01-13T20:20:02.420Z,66.66
2023-01-13T20:25:04.633Z,66.89
2023-01-13T20:30:13.577Z,67.06
2023-01-13T20:35:15.674Z,67.20
2023-01-13T20:40:18.533Z,67.29
2023-01-13T20:45:21.748Z,67.44
2023-01-13T20:50:23.560Z,67.38
2023-01-13T20:55:25.302Z,67.55
2023-01-13T21:00:28.765Z,67.62
2023-01-13T21:05:30.878Z,67.87
2023-01-13T21:10:32.775Z,67.97
2023-01-13T21:15:34.936Z,68.19
2023-01-13T21:20:38.203Z,68.10
2023-01-13T21:25:40.488Z,68.20
2023-01-13T21:30:43.833Z,68.31
2023-01-13T21:35:45.699Z,68.54
2023-01-13T21:40:59.894Z,68.54
2023-01-13T21:46:20.220Z,68.58
2023-01-13T21:51:22.100Z,68.50
2023-01-13T21:56:24.391Z,68.83
2023-01-13T22:01:26.260Z,68.83
2023-01-13T22:06:28.239Z,68.84
2023-01-13T22:11:31.873Z,68.74
2023-01-13T22:16:39.632Z,68.69
2023-01-13T22:21:41.571Z,68.60
2023-01-13T22:26:43.418Z,68.66
2023-01-13T22:31:45.314Z,68.86
2023-01-13T22:36:47.119Z,68.69
2023-01-13T22:41:48.893Z,68.73
2023-01-13T22:46:51.011Z,68.74
2023-01-13T22:51:53.090Z,68.83
2023-01-13T22:56:55.273Z,68.92
2023-01-13T23:01:57.118Z,68.82
2023-01-13T23:07:00.216Z,69.21
2023-01-13T23:12:02.092Z,69.45
2023-01-13T23:17:04.763Z,69.76
2023-01-13T23:22:06.779Z,69.81
2023-01-13T23:27:08.607Z,70.03
2023-01-13T23:32:10.464Z,70.07
2023-01-13T23:37:12.375Z,70.19
2023-01-13T23:42:14.270Z,70.31
2023-01-13T23:47:16.091Z,70.41
2023-01-13T23:52:18.255Z,70.47
2023-01-13T23:57:20.419Z,70.31
